Main page
METAR-TAF:

METAR-TAF

Airports :

MoD Boscombe Down

Boscombe Down, England

latitude: 51-10N, longitude: 001-45W, elevation: 124 m

Current weather observation

The report was made 26 minutes ago, at 09:20 UTC
Wind 3 kt from the South/Southwest
Temperature 2°C
Humidity 100%
Pressure 1022 hPa
Visibility: 8000 m
Broken clouds at a height of 18000 ft
mist

METAR: EGDM 270920Z 21003KT 8000 BR BKN180 02/02 Q1022 NOSIG RMK BLU BLU

Time: 09:46 (09:46 UTC)

Forecast

The report was made 1 hour and 58 minutes ago, at 07:48 UTC
Forecast valid from 27 at 09 UTC to 27 at 18 UTC
Wind 5 kt from the West
Visibility: 4000 m
Few clouds at a height of 1400 ft
mist
Becoming
from 27 at 09 UTC to 27 at 11 UTC
Visibility 10 km or more
Becoming
from 27 at 15 UTC to 27 at 18 UTC
Overcast at a height of 2000 ft

TAF: EGDM 270748Z 2709/2718 28005KT 4000 BR FEW014 BECMG 2709/2711 9999 NSW BECMG 2715/2718 OVC020

Weather observations and forecasts of more than 4000 airports (METAR and TAF reports).

The available stations are represented by yellow and red dots on the map.

Hover mouse over dot to see the name of the station.

Then click to see weather observations and forecasts.

To change the map : click on the green buttons with a black cross to zoom in, on the green button with a dash to zoom out, or on the green arrows for adjacent maps.


METAR-TAF: